Time;durP1;ratioP1;P1;durP2;ratioP2;P2;SDS_P1;SDS_P2;PMS_P1;PMS_P2;Temp;Humidity;BMP_temperature;BMP_pressure;BME280_temperature;BME280_humidity;BME280_pressure;Samples;Min_cycle;Max_cycle;Signal;HPM_P1;HPM_P2
2022/10/21 09:30:16;;;;;;;;;32.75;30.00;;;;;;;;5125738;27;13457;-75
2022/10/21 09:32:48;;;;;;;;;30.25;28.00;;;;;;;;5039525;28;13578;-76
2022/10/21 09:35:23;;;;;;;;;28.00;25.50;;;;;;;;5124272;27;14427;-76
2022/10/21 09:37:52;;;;;;;;;30.50;28.00;;;;;;;;5124605;27;13566;-77
2022/10/21 09:40:19;;;;;;;;;35.40;32.40;;;;;;;;5066952;27;13602;-75
2022/10/21 09:42:45;;;;;;;;;38.50;34.50;;;;;;;;5020222;28;13567;-77
2022/10/21 09:45:28;;;;;;;;;45.25;37.75;;;;;;;;5019538;28;13580;-79
2022/10/21 09:47:55;;;;;;;;;25.40;25.40;;;;;;;;5019954;28;13564;-75
2022/10/21 09:50:21;;;;;;;;;47.25;39.25;;;;;;;;5042657;27;14323;-78
2022/10/21 09:52:51;;;;;;;;;34.00;30.75;;;;;;;;5124227;27;13492;-78
2022/10/21 09:55:17;;;;;;;;;60.75;49.00;;;;;;;;5124273;27;13550;-75
2022/10/21 09:57:57;;;;;;;;;43.75;36.25;;;;;;;;5123725;27;13558;-75
2022/10/21 10:00:39;;;;;;;;;55.20;46.20;;;;;;;;5117687;27;13544;-74
2022/10/21 10:03:04;;;;;;;;;29.50;25.25;;;;;;;;5123967;27;13532;-75
2022/10/21 10:05:32;;;;;;;;;51.75;42.25;;;;;;;;5124049;27;14242;-80
2022/10/21 10:07:57;;;;;;;;;33.50;30.00;;;;;;;;5122718;27;13568;-78
2022/10/21 10:10:30;;;;;;;;;31.75;26.50;;;;;;;;5078644;27;14308;-78
2022/10/21 10:12:57;;;;;;;;;35.75;32.00;;;;;;;;5039745;28;13572;-78
2022/10/21 10:15:33;;;;;;;;;36.60;32.00;;;;;;;;5038440;28;13722;-78
2022/10/21 10:17:59;;;;;;;;;29.80;29.80;;;;;;;;5039448;28;13532;-78
2022/10/21 10:20:24;;;;;;;;;33.25;28.75;;;;;;;;5059032;27;13700;-78
2022/10/21 10:22:58;;;;;;;;;26.50;25.75;;;;;;;;5123667;27;13660;-78
2022/10/21 10:25:28;;;;;;;;;32.75;30.25;;;;;;;;5123801;27;13522;-76
2022/10/21 10:27:56;;;;;;;;;28.00;27.00;;;;;;;;5123466;27;13662;-76
2022/10/21 10:30:22;;;;;;;;;26.60;25.00;;;;;;;;5099804;27;14400;-76
2022/10/21 10:32:50;;;;;;;;;38.20;30.60;;;;;;;;5017119;28;13661;-76
2022/10/21 10:35:27;;;;;;;;;26.25;26.00;;;;;;;;5010050;28;13612;-76
2022/10/21 10:37:53;;;;;;;;;32.00;30.25;;;;;;;;4999764;28;13785;-76
2022/10/21 10:40:23;;;;;;;;;28.00;26.00;;;;;;;;5014639;28;14412;-74
2022/10/21 10:42:50;;;;;;;;;33.00;30.75;;;;;;;;5026181;28;13532;-77
2022/10/21 10:45:19;;;;;;;;;54.80;45.00;;;;;;;;5026062;28;13551;-74
2022/10/21 10:47:54;;;;;;;;;55.00;45.20;;;;;;;;5025622;28;13653;-74
2022/10/21 10:50:38;;;;;;;;;45.25;37.00;;;;;;;;5033646;28;13538;-79
2022/10/21 10:53:09;;;;;;;;;43.00;35.00;;;;;;;;5013179;28;14312;-79
2022/10/21 10:55:41;;;;;;;;;75.60;64.60;;;;;;;;5023322;28;13624;-80
2022/10/21 10:58:07;;;;;;;;;40.00;32.00;;;;;;;;5002643;28;13658;-76
2022/10/21 11:00:38;;;;;;;;;45.50;38.00;;;;;;;;5033269;28;13605;-76
2022/10/21 11:03:05;;;;;;;;;25.50;24.25;;;;;;;;5023390;28;13578;-75
2022/10/21 11:05:35;;;;;;;;;28.40;26.80;;;;;;;;5013714;28;13659;-75
2022/10/21 11:08:23;;;;;;;;;25.00;24.00;;;;;;;;5003355;28;13713;-76
2022/10/21 11:10:50;;;;;;;;;26.60;24.00;;;;;;;;5018171;28;13652;-74
2022/10/21 11:13:16;;;;;;;;;28.00;26.20;;;;;;;;5023812;28;13548;-75
2022/10/21 11:15:51;;;;;;;;;29.25;27.50;;;;;;;;5025288;28;13576;-79
2022/10/21 11:18:20;;;;;;;;;24.25;22.75;;;;;;;;5025099;28;13575;-80
2022/10/21 11:20:54;;;;;;;;;28.75;26.50;;;;;;;;5026508;28;13548;-76
2022/10/21 11:23:19;;;;;;;;;23.60;22.40;;;;;;;;5025139;28;13584;-79
2022/10/21 11:25:51;;;;;;;;;46.00;39.00;;;;;;;;5025077;28;14402;-82
2022/10/21 11:28:30;;;;;;;;;45.20;38.40;;;;;;;;5024568;28;13655;-81
2022/10/21 11:31:01;;;;;;;;;41.00;34.50;;;;;;;;5037266;28;14348;-80
2022/10/21 11:33:27;;;;;;;;;24.75;23.50;;;;;;;;5024931;28;13625;-74
2022/10/21 11:35:56;;;;;;;;;27.00;23.25;;;;;;;;5025164;28;14505;-76
2022/10/21 11:38:44;;;;;;;;;26.67;25.00;;;;;;;;5024496;28;13642;-79
2022/10/21 11:41:18;;;;;;;;;23.80;21.20;;;;;;;;5023379;28;13468;-79
2022/10/21 11:43:49;;;;;;;;;26.00;26.00;;;;;;;;5106901;28;13578;-78
2022/10/21 11:46:20;;;;;;;;;27.60;26.00;;;;;;;;5108316;28;14371;-79
2022/10/21 11:49:04;;;;;;;;;31.25;27.00;;;;;;;;5108119;28;13537;-79
2022/10/21 11:51:29;;;;;;;;;28.25;26.25;;;;;;;;5044507;28;13649;-81
2022/10/21 11:54:04;;;;;;;;;29.33;28.00;;;;;;;;5024519;28;13555;-78
2022/10/21 11:56:38;;;;;;;;;25.75;23.75;;;;;;;;5024668;28;13540;-81
2022/10/21 11:59:34;;;;;;;;;25.00;21.00;;;;;;;;5023061;28;13559;-79
2022/10/21 12:02:18;;;;;;;;;27.75;27.25;;;;;;;;5026407;28;13532;-80
2022/10/21 12:04:43;;;;;;;;;23.00;23.00;;;;;;;;5024483;28;13533;-77
2022/10/21 12:07:16;;;;;;;;;23.67;23.67;;;;;;;;5024379;28;13604;-77
2022/10/21 12:09:48;;;;;;;;;21.75;20.75;;;;;;;;5024576;28;13611;-77
2022/10/21 12:12:20;;;;;;;;;40.75;33.50;;;;;;;;5023236;28;14288;-77
2022/10/21 12:14:48;;;;;;;;;41.80;35.60;;;;;;;;5024450;28;13421;-75
2022/10/21 12:17:16;;;;;;;;;28.75;28.25;;;;;;;;5024253;28;13500;-75
2022/10/21 12:19:44;;;;;;;;;23.25;21.25;;;;;;;;5006002;28;13568;-75
2022/10/21 12:22:11;;;;;;;;;25.20;25.20;;;;;;;;5103702;28;13523;-77
2022/10/21 12:24:48;;;;;;;;;29.25;23.00;;;;;;;;5018051;28;14325;-77
2022/10/21 12:27:32;;;;;;;;;27.40;22.80;;;;;;;;4984868;28;13577;-77
2022/10/21 12:30:11;;;;;;;;;23.50;21.00;;;;;;;;4992089;28;13683;-77
2022/10/21 12:32:55;;;;;;;;;29.60;24.40;;;;;;;;5105380;28;14333;-73
2022/10/21 12:35:39;;;;;;;;;22.00;21.00;;;;;;;;5107625;28;14302;-76
2022/10/21 12:38:06;;;;;;;;;23.80;23.60;;;;;;;;5107268;28;13475;-74
2022/10/21 12:40:32;;;;;;;;;24.75;22.00;;;;;;;;5053314;28;14286;-75
2022/10/21 12:42:59;;;;;;;;;21.40;20.00;;;;;;;;5033274;28;13652;-75
2022/10/21 12:45:29;;;;;;;;;23.75;23.00;;;;;;;;4984657;28;13567;-74
2022/10/21 12:47:55;;;;;;;;;22.25;21.25;;;;;;;;4984547;28;14375;-74
2022/10/21 12:50:28;;;;;;;;;22.33;21.00;;;;;;;;4994341;28;13531;-73
2022/10/21 12:53:12;;;;;;;;;24.80;22.00;;;;;;;;5023487;28;13509;-73
2022/10/21 12:55:39;;;;;;;;;22.50;21.75;;;;;;;;5022917;28;13533;-72
2022/10/21 12:58:13;;;;;;;;;29.80;26.20;;;;;;;;5023596;28;13587;-72
2022/10/21 13:00:50;;;;;;;;;26.50;25.00;;;;;;;;5024551;28;13649;-72
2022/10/21 13:03:20;;;;;;;;;29.00;26.25;;;;;;;;5023547;28;13526;-72
2022/10/21 13:05:46;;;;;;;;;30.20;26.20;;;;;;;;5023404;28;13522;-72
2022/10/21 13:08:17;;;;;;;;;26.33;24.67;;;;;;;;5023438;28;13577;-72
2022/10/21 13:11:03;;;;;;;;;28.25;26.25;;;;;;;;5023156;28;13579;-73
2022/10/21 13:13:38;;;;;;;;;23.25;23.00;;;;;;;;5023447;28;13598;-73
2022/10/21 13:16:19;;;;;;;;;25.00;25.00;;;;;;;;5022358;28;13543;-76
2022/10/21 13:19:01;;;;;;;;;27.75;25.00;;;;;;;;5023237;28;13706;-80
2022/10/21 13:21:26;;;;;;;;;24.60;24.60;;;;;;;;5016459;28;13565;-78
2022/10/21 13:23:53;;;;;;;;;25.50;25.00;;;;;;;;5004613;28;13596;-77
2022/10/21 13:26:20;;;;;;;;;25.25;23.75;;;;;;;;5022039;28;13545;-77
2022/10/21 13:29:05;;;;;;;;;28.20;26.20;;;;;;;;5023126;28;13713;-76
2022/10/21 13:31:31;;;;;;;;;25.60;24.40;;;;;;;;5024039;28;13602;-76
2022/10/21 13:33:56;;;;;;;;;25.33;22.33;;;;;;;;5023682;28;13559;-82
2022/10/21 13:36:38;;;;;;;;;32.00;26.00;;;;;;;;5022939;28;13664;-80
2022/10/21 13:39:24;;;;;;;;;20.80;19.60;;;;;;;;5022390;28;13509;-80
2022/10/21 13:42:04;;;;;;;;;25.75;22.75;;;;;;;;5024049;28;13549;-82
2022/10/21 13:44:32;;;;;;;;;25.20;22.00;;;;;;;;5022943;28;13771;-82
2022/10/21 13:47:16;;;;;;;;;26.33;23.00;;;;;;;;5010217;28;13580;-82
2022/10/21 13:49:48;;;;;;;;;26.25;20.50;;;;;;;;5067019;28;13524;-82
2022/10/21 13:52:13;;;;;;;;;21.40;20.40;;;;;;;;5104810;28;13509;-83
2022/10/21 13:54:38;;;;;;;;;28.00;24.00;;;;;;;;5106257;28;14271;-82
2022/10/21 13:57:04;;;;;;;;;25.00;23.67;;;;;;;;5104674;28;13529;-82
2022/10/21 13:59:31;;;;;;;;;36.75;29.25;;;;;;;;5052476;28;13569;-82
2022/10/21 14:01:57;;;;;;;;;27.00;21.25;;;;;;;;5023246;28;13623;-82
2022/10/21 14:04:29;;;;;;;;;20.25;19.75;;;;;;;;5022754;28;13526;-82
2022/10/21 14:07:00;;;;;;;;;20.20;20.20;;;;;;;;4976520;27;13548;-82
2022/10/21 14:09:39;;;;;;;;;24.50;23.50;;;;;;;;5049803;28;13573;-82
2022/10/21 14:12:16;;;;;;;;;24.20;24.20;;;;;;;;5064704;28;13589;-82
2022/10/21 14:14:42;;;;;;;;;25.00;22.50;;;;;;;;5059282;28;13584;-82
2022/10/21 14:17:08;;;;;;;;;28.50;27.00;;;;;;;;5047488;28;13629;-82
2022/10/21 14:19:36;;;;;;;;;28.00;23.75;;;;;;;;5046738;28;13734;-81
2022/10/21 14:22:02;;;;;;;;;25.75;20.25;;;;;;;;5044691;28;13603;-81
2022/10/21 14:24:31;;;;;;;;;25.20;23.40;;;;;;;;5049290;28;13591;-81
2022/10/21 14:26:56;;;;;;;;;25.00;22.00;;;;;;;;5048695;28;13521;-83
2022/10/21 14:29:23;;;;;;;;;30.00;27.25;;;;;;;;5067838;28;13615;-83
2022/10/21 14:31:48;;;;;;;;;25.25;25.25;;;;;;;;5069115;28;13554;-77
2022/10/21 14:34:21;;;;;;;;;25.00;23.75;;;;;;;;5069182;28;13664;-76
2022/10/21 14:37:04;;;;;;;;;27.00;26.75;;;;;;;;5069026;28;13558;-77
2022/10/21 14:39:30;;;;;;;;;27.25;25.75;;;;;;;;5051696;28;13662;-76
2022/10/21 14:42:01;;;;;;;;;26.50;25.25;;;;;;;;5068519;28;13556;-77
2022/10/21 14:44:27;;;;;;;;;29.25;25.00;;;;;;;;5069169;28;13535;-72
2022/10/21 14:46:53;;;;;;;;;31.25;28.75;;;;;;;;5069071;28;13623;-76
2022/10/21 14:49:26;;;;;;;;;28.80;26.00;;;;;;;;5068838;28;13595;-76
2022/10/21 14:52:05;;;;;;;;;32.00;30.25;;;;;;;;5068927;28;13755;-80
2022/10/21 14:54:36;;;;;;;;;37.20;34.40;;;;;;;;5068967;28;13618;-77
2022/10/21 14:57:03;;;;;;;;;29.00;27.25;;;;;;;;5068909;28;13648;-81
2022/10/21 14:59:41;;;;;;;;;31.25;30.00;;;;;;;;5068916;28;13544;-79
2022/10/21 15:02:25;;;;;;;;;32.25;31.50;;;;;;;;5040292;28;13586;-80
2022/10/21 15:04:52;;;;;;;;;31.50;31.50;;;;;;;;5028866;28;13631;-81
2022/10/21 15:07:24;;;;;;;;;31.20;29.00;;;;;;;;5044105;28;13676;-79
2022/10/21 15:10:08;;;;;;;;;37.25;33.75;;;;;;;;5042631;28;13642;-80
2022/10/21 15:12:39;;;;;;;;;33.40;31.20;;;;;;;;5068863;28;13609;-81
2022/10/21 15:15:25;;;;;;;;;35.00;31.00;;;;;;;;5068658;28;14361;-81
2022/10/21 15:18:00;;;;;;;;;37.20;32.80;;;;;;;;5068524;28;14332;-84
2022/10/21 15:20:29;;;;;;;;;36.80;31.00;;;;;;;;5068286;28;13564;-81
2022/10/21 15:22:55;;;;;;;;;41.75;31.50;;;;;;;;5056003;28;13628;-80
2022/10/21 15:25:22;;;;;;;;;37.75;33.50;;;;;;;;5053782;28;13603;-84
2022/10/21 15:27:48;;;;;;;;;44.00;35.75;;;;;;;;5068222;28;13564;-82
2022/10/21 15:30:14;;;;;;;;;33.00;30.75;;;;;;;;5048987;28;14400;-76
2022/10/21 15:32:40;;;;;;;;;37.00;33.00;;;;;;;;5051541;28;13580;-76
2022/10/21 15:35:11;;;;;;;;;35.67;33.00;;;;;;;;5066613;28;14318;-77
2022/10/21 15:37:36;;;;;;;;;34.00;30.25;;;;;;;;5067900;28;13563;-73
2022/10/21 15:40:01;;;;;;;;;35.00;33.25;;;;;;;;5063810;28;13651;-74
2022/10/21 15:42:27;;;;;;;;;40.67;36.33;;;;;;;;5067453;28;13576;-73
2022/10/21 15:44:52;;;;;;;;;37.25;32.75;;;;;;;;5067908;28;14359;-75
2022/10/21 15:47:17;;;;;;;;;34.75;31.00;;;;;;;;5053347;28;13726;-75
2022/10/21 15:49:44;;;;;;;;;36.00;33.00;;;;;;;;5044738;28;13757;-73
2022/10/21 15:52:10;;;;;;;;;36.80;33.80;;;;;;;;5044653;28;13653;-73
2022/10/21 15:54:35;;;;;;;;;35.67;30.33;;;;;;;;5047186;28;13572;-80
2022/10/21 15:57:01;;;;;;;;;35.00;30.50;;;;;;;;5046608;28;13695;-74
2022/10/21 15:59:27;;;;;;;;;30.50;28.25;;;;;;;;5047102;28;14273;-73
2022/10/21 16:01:53;;;;;;;;;33.00;30.00;;;;;;;;5045677;28;13564;-73
2022/10/21 16:04:18;;;;;;;;;39.00;34.25;;;;;;;;5046648;28;13622;-74
2022/10/21 16:06:46;;;;;;;;;39.00;33.33;;;;;;;;5046936;28;13718;-74
2022/10/21 16:09:13;;;;;;;;;33.33;32.00;;;;;;;;5047461;28;13615;-77
2022/10/21 16:11:38;;;;;;;;;36.80;34.20;;;;;;;;5045463;28;13665;-76
2022/10/21 16:14:03;;;;;;;;;35.33;31.00;;;;;;;;5046664;28;13569;-75
2022/10/21 16:16:29;;;;;;;;;36.75;32.50;;;;;;;;5046904;28;13576;-81
2022/10/21 16:18:54;;;;;;;;;42.50;34.00;;;;;;;;5046578;28;13696;-81
2022/10/21 16:21:20;;;;;;;;;35.33;32.00;;;;;;;;5043547;28;13563;-82
2022/10/21 16:23:46;;;;;;;;;34.00;31.00;;;;;;;;5040063;28;13588;-83
2022/10/21 16:26:20;;;;;;;;;34.00;31.67;;;;;;;;5046176;28;13634;-81
2022/10/21 16:28:46;;;;;;;;;34.80;32.20;;;;;;;;5045570;28;13601;-80
2022/10/21 16:31:12;;;;;;;;;41.50;35.00;;;;;;;;5046635;28;13785;-78
2022/10/21 16:33:38;;;;;;;;;35.00;32.00;;;;;;;;5066926;28;14445;-77
2022/10/21 16:36:15;;;;;;;;;34.00;32.50;;;;;;;;5066772;28;13643;-80
2022/10/21 16:38:42;;;;;;;;;40.60;34.80;;;;;;;;5047476;28;13637;-77
2022/10/21 16:41:12;;;;;;;;;32.80;31.00;;;;;;;;5050528;28;13655;-77
2022/10/21 16:43:37;;;;;;;;;33.80;32.40;;;;;;;;5046148;28;13729;-76
2022/10/21 16:46:02;;;;;;;;;31.33;31.33;;;;;;;;5046062;28;14498;-74
2022/10/21 16:48:28;;;;;;;;;33.00;32.00;;;;;;;;5044703;28;13596;-74
2022/10/21 16:50:53;;;;;;;;;35.50;32.00;;;;;;;;5045628;28;13579;-73
2022/10/21 16:53:20;;;;;;;;;36.00;32.00;;;;;;;;5046855;28;14375;-79
2022/10/21 16:55:46;;;;;;;;;33.25;30.25;;;;;;;;5045833;28;13592;-74
2022/10/21 16:58:11;;;;;;;;;37.67;34.00;;;;;;;;5044606;28;13682;-76
2022/10/21 17:00:36;;;;;;;;;38.00;34.25;;;;;;;;5044999;28;13602;-80
2022/10/21 17:03:02;;;;;;;;;36.75;34.00;;;;;;;;5045417;28;14656;-78
2022/10/21 17:05:27;;;;;;;;;40.50;35.00;;;;;;;;5045903;28;13774;-77
2022/10/21 17:07:53;;;;;;;;;33.00;31.67;;;;;;;;5046250;28;15329;-76
2022/10/21 17:10:18;;;;;;;;;37.80;34.20;;;;;;;;5046012;28;13639;-78
2022/10/21 17:12:44;;;;;;;;;38.50;34.25;;;;;;;;5043477;28;13708;-79
2022/10/21 17:15:13;;;;;;;;;39.33;34.00;;;;;;;;5052984;28;14384;-76
2022/10/21 17:17:38;;;;;;;;;38.80;35.00;;;;;;;;5031147;28;13606;-78
2022/10/21 17:20:04;;;;;;;;;37.67;34.00;;;;;;;;5044122;28;13586;-79
2022/10/21 17:22:29;;;;;;;;;38.50;34.00;;;;;;;;5042947;28;14476;-78
2022/10/21 17:24:54;;;;;;;;;36.00;33.25;;;;;;;;5044130;28;13639;-75
2022/10/21 17:27:20;;;;;;;;;42.50;35.50;;;;;;;;5042798;28;14198;-76
2022/10/21 17:29:45;;;;;;;;;40.75;35.00;;;;;;;;5044995;28;13584;-76
2022/10/21 17:32:11;;;;;;;;;41.00;34.25;;;;;;;;5045137;28;14351;-80
2022/10/21 17:34:38;;;;;;;;;42.00;34.00;;;;;;;;5057774;28;13602;-83
2022/10/21 17:37:04;;;;;;;;;42.50;36.75;;;;;;;;5042080;28;13629;-80
2022/10/21 17:39:29;;;;;;;;;39.25;34.75;;;;;;;;5037234;28;13598;-81
2022/10/21 17:41:54;;;;;;;;;44.00;37.00;;;;;;;;5060683;28;13726;-82
2022/10/21 17:44:20;;;;;;;;;37.25;34.25;;;;;;;;5043345;28;13746;-76
2022/10/21 17:46:48;;;;;;;;;41.33;34.33;;;;;;;;5046272;28;13685;-74
2022/10/21 17:49:13;;;;;;;;;35.00;32.00;;;;;;;;5045325;28;13584;-75
2022/10/21 17:51:38;;;;;;;;;35.75;33.50;;;;;;;;5048159;28;13725;-76
2022/10/21 17:54:04;;;;;;;;;38.00;34.00;;;;;;;;5043736;28;13627;-76
2022/10/21 17:56:29;;;;;;;;;39.00;33.67;;;;;;;;5047346;28;13623;-76
2022/10/21 17:58:55;;;;;;;;;37.50;35.00;;;;;;;;5049123;28;13620;-74
2022/10/21 18:01:21;;;;;;;;;43.80;37.00;;;;;;;;5048383;28;13654;-75
2022/10/21 18:03:47;;;;;;;;;39.00;31.40;;;;;;;;5047074;28;13613;-74
2022/10/21 18:06:13;;;;;;;;;33.00;27.50;;;;;;;;5048238;28;13630;-74
2022/10/21 18:08:38;;;;;;;;;36.25;32.25;;;;;;;;5047930;28;13730;-75
2022/10/21 18:11:08;;;;;;;;;31.75;27.75;;;;;;;;5050516;28;14496;-76
2022/10/21 18:13:34;;;;;;;;;34.60;32.00;;;;;;;;5046991;28;15242;-85
2022/10/21 18:16:07;;;;;;;;;32.50;27.50;;;;;;;;5048402;28;13697;-82
2022/10/21 18:18:33;;;;;;;;;37.75;33.25;;;;;;;;5048037;28;13643;-82
2022/10/21 18:20:59;;;;;;;;;32.60;28.80;;;;;;;;5047956;28;13627;-82
2022/10/21 18:23:24;;;;;;;;;33.20;32.00;;;;;;;;5047660;28;13666;-80
2022/10/21 18:25:49;;;;;;;;;40.00;34.00;;;;;;;;5046724;28;13549;-88
2022/10/21 18:28:15;;;;;;;;;37.00;34.00;;;;;;;;5045650;28;13649;-86
2022/10/21 18:30:41;;;;;;;;;33.67;32.00;;;;;;;;5048172;28;13641;-84
2022/10/21 18:33:06;;;;;;;;;31.60;29.80;;;;;;;;5047841;28;13600;-88
2022/10/21 18:35:32;;;;;;;;;30.67;27.67;;;;;;;;5048367;28;13688;-85
2022/10/21 18:37:57;;;;;;;;;35.33;31.00;;;;;;;;5048063;28;13619;-86
2022/10/21 18:40:22;;;;;;;;;32.00;28.25;;;;;;;;5048910;28;13620;-85
2022/10/21 18:42:48;;;;;;;;;31.25;30.00;;;;;;;;5047669;28;14410;-82
2022/10/21 18:45:13;;;;;;;;;27.00;25.33;;;;;;;;5047286;28;13702;-84
2022/10/21 18:47:39;;;;;;;;;26.00;24.75;;;;;;;;5046939;28;13674;-81
2022/10/21 18:50:04;;;;;;;;;27.75;27.50;;;;;;;;5044502;28;13713;-79
2022/10/21 18:52:30;;;;;;;;;32.50;29.50;;;;;;;;5061872;28;13604;-85
2022/10/21 18:54:55;;;;;;;;;34.00;29.00;;;;;;;;5047193;28;13717;-81
2022/10/21 18:57:20;;;;;;;;;35.25;31.50;;;;;;;;5046554;28;13600;-86
2022/10/21 18:59:46;;;;;;;;;33.67;32.00;;;;;;;;5045812;28;13614;-81
2022/10/21 19:02:17;;;;;;;;;30.00;28.75;;;;;;;;5061567;28;13620;-81
2022/10/21 19:04:43;;;;;;;;;36.60;32.40;;;;;;;;5043681;28;13840;-81
2022/10/21 19:07:08;;;;;;;;;32.67;32.00;;;;;;;;5042808;28;13713;-80
2022/10/21 19:09:33;;;;;;;;;41.75;34.00;;;;;;;;5051426;28;13599;-87
2022/10/21 19:12:01;;;;;;;;;39.75;32.00;;;;;;;;5047473;28;13605;-79
2022/10/21 19:14:27;;;;;;;;;35.20;33.00;;;;;;;;5038258;28;13577;-80
2022/10/21 19:16:52;;;;;;;;;40.75;35.00;;;;;;;;5047527;28;13580;-83
2022/10/21 19:19:18;;;;;;;;;35.50;33.50;;;;;;;;5048172;28;14498;-81
2022/10/21 19:21:43;;;;;;;;;41.50;37.25;;;;;;;;5047681;28;13584;-80
2022/10/21 19:24:08;;;;;;;;;39.00;35.00;;;;;;;;5045258;28;13637;-80
2022/10/21 19:26:35;;;;;;;;;40.33;35.00;;;;;;;;5047275;28;13586;-80
2022/10/21 19:29:01;;;;;;;;;34.00;32.00;;;;;;;;5047125;28;13620;-80
2022/10/21 19:31:27;;;;;;;;;38.33;35.00;;;;;;;;5045101;28;13589;-80
2022/10/21 19:33:52;;;;;;;;;41.75;37.00;;;;;;;;5047315;28;13648;-81
2022/10/21 19:36:17;;;;;;;;;44.50;39.00;;;;;;;;5046221;28;14329;-80
2022/10/21 19:38:42;;;;;;;;;48.67;41.00;;;;;;;;5046627;28;13725;-80
2022/10/21 19:41:09;;;;;;;;;51.00;41.75;;;;;;;;5046145;28;13655;-80
2022/10/21 19:43:34;;;;;;;;;53.25;45.00;;;;;;;;5046347;28;13708;-79
2022/10/21 19:46:01;;;;;;;;;55.67;46.00;;;;;;;;5046387;28;14242;-78
2022/10/21 19:48:26;;;;;;;;;59.20;47.00;;;;;;;;5047254;28;13615;-78
2022/10/21 19:50:52;;;;;;;;;58.50;47.00;;;;;;;;5047625;28;13549;-76
2022/10/21 19:53:17;;;;;;;;;58.25;47.25;;;;;;;;5042520;28;13660;-78
2022/10/21 19:55:43;;;;;;;;;48.75;38.25;;;;;;;;5027439;28;14507;-80
2022/10/21 19:58:08;;;;;;;;;43.50;36.00;;;;;;;;5034061;28;13632;-77
2022/10/21 20:00:35;;;;;;;;;41.75;35.25;;;;;;;;5045328;28;14397;-76
2022/10/21 20:03:00;;;;;;;;;38.80;32.20;;;;;;;;5046144;28;13653;-72
2022/10/21 20:05:26;;;;;;;;;37.00;35.00;;;;;;;;5047210;28;14650;-75
2022/10/21 20:07:51;;;;;;;;;37.67;35.00;;;;;;;;5047544;28;13571;-74
2022/10/21 20:10:19;;;;;;;;;37.50;30.25;;;;;;;;5058041;28;13588;-74
2022/10/21 20:12:45;;;;;;;;;39.00;36.00;;;;;;;;5066705;28;13656;-74
2022/10/21 20:15:10;;;;;;;;;37.50;32.75;;;;;;;;5067408;28;14261;-74
2022/10/21 20:17:36;;;;;;;;;45.75;37.25;;;;;;;;5067079;28;14300;-74
2022/10/21 20:20:01;;;;;;;;;41.50;35.25;;;;;;;;5067159;28;13574;-74
2022/10/21 20:22:26;;;;;;;;;40.00;35.00;;;;;;;;5066938;28;13593;-73
2022/10/21 20:24:51;;;;;;;;;38.25;36.00;;;;;;;;5051775;28;13620;-73
2022/10/21 20:27:17;;;;;;;;;42.00;32.50;;;;;;;;5026913;28;14517;-73
2022/10/21 20:29:42;;;;;;;;;43.67;37.33;;;;;;;;4993232;28;13746;-74
2022/10/21 20:32:08;;;;;;;;;37.00;34.50;;;;;;;;5040005;28;13643;-72
2022/10/21 20:34:33;;;;;;;;;41.00;36.00;;;;;;;;5044698;28;13644;-73
2022/10/21 20:36:58;;;;;;;;;38.75;34.75;;;;;;;;5044753;28;14411;-73
2022/10/21 20:39:23;;;;;;;;;39.00;34.75;;;;;;;;5045334;28;14383;-73
2022/10/21 20:41:49;;;;;;;;;36.50;32.75;;;;;;;;5045083;28;13727;-73
2022/10/21 20:44:15;;;;;;;;;44.00;36.00;;;;;;;;5045586;28;13631;-73
2022/10/21 20:46:41;;;;;;;;;38.00;34.80;;;;;;;;5045359;28;13657;-72
2022/10/21 20:49:06;;;;;;;;;41.00;37.25;;;;;;;;5044878;28;13617;-72
2022/10/21 20:51:33;;;;;;;;;38.20;33.20;;;;;;;;5044476;28;13697;-72
2022/10/21 20:54:02;;;;;;;;;35.80;33.00;;;;;;;;5041415;28;13612;-73
2022/10/21 20:56:29;;;;;;;;;32.50;32.00;;;;;;;;5045067;28;13572;-72
2022/10/21 20:58:55;;;;;;;;;37.80;33.00;;;;;;;;5045131;28;14184;-72
2022/10/21 21:01:24;;;;;;;;;37.00;32.75;;;;;;;;5044682;28;13583;-72
2022/10/21 21:03:50;;;;;;;;;36.80;32.60;;;;;;;;5041618;28;13734;-72
2022/10/21 21:06:15;;;;;;;;;35.60;31.40;;;;;;;;5014096;28;13590;-74
2022/10/21 21:08:40;;;;;;;;;38.00;35.67;;;;;;;;5046042;28;13607;-73
2022/10/21 21:11:07;;;;;;;;;39.00;35.25;;;;;;;;5063284;28;13554;-72
2022/10/21 21:13:33;;;;;;;;;42.50;37.25;;;;;;;;5051233;28;14441;-73
2022/10/21 21:16:09;;;;;;;;;36.33;34.00;;;;;;;;5037353;28;13795;-71
2022/10/21 21:18:35;;;;;;;;;36.00;34.00;;;;;;;;5043365;28;13609;-71
2022/10/21 21:21:02;;;;;;;;;35.60;32.80;;;;;;;;5045955;28;13606;-71
2022/10/21 21:23:27;;;;;;;;;34.60;29.60;;;;;;;;5042779;28;13598;-71
2022/10/21 21:25:52;;;;;;;;;31.00;29.33;;;;;;;;5045566;28;13688;-71
2022/10/21 21:28:17;;;;;;;;;32.67;30.67;;;;;;;;5045373;28;13658;-71
2022/10/21 21:30:49;;;;;;;;;30.75;30.25;;;;;;;;5043402;28;14343;-71
2022/10/21 21:33:15;;;;;;;;;33.75;31.00;;;;;;;;5045920;28;13601;-71
2022/10/21 21:35:40;;;;;;;;;34.00;31.33;;;;;;;;5045840;28;13556;-72
2022/10/21 21:38:05;;;;;;;;;34.33;32.00;;;;;;;;5099566;22;13766;-74
2022/10/21 21:40:32;;;;;;;;;34.67;29.67;;;;;;;;5035664;28;13753;-73
2022/10/21 21:42:57;;;;;;;;;39.25;34.00;;;;;;;;5044914;28;13707;-73
2022/10/21 21:45:22;;;;;;;;;34.33;32.33;;;;;;;;5044672;28;13621;-73
2022/10/21 21:47:47;;;;;;;;;34.25;30.00;;;;;;;;5029599;28;13656;-73
2022/10/21 21:50:16;;;;;;;;;28.25;25.75;;;;;;;;5024251;28;13668;-73
2022/10/21 21:52:41;;;;;;;;;25.00;25.00;;;;;;;;5024987;28;13659;-74
2022/10/21 21:55:07;;;;;;;;;34.67;29.67;;;;;;;;5026090;28;13616;-72
2022/10/21 21:57:32;;;;;;;;;29.75;27.75;;;;;;;;5026459;28;13706;-73
2022/10/21 21:59:57;;;;;;;;;31.00;30.00;;;;;;;;5027404;28;13720;-73
2022/10/21 22:02:22;;;;;;;;;30.25;26.75;;;;;;;;5028219;28;13639;-73
2022/10/21 22:04:48;;;;;;;;;33.00;28.75;;;;;;;;5027784;28;13675;-74
2022/10/21 22:07:13;;;;;;;;;31.50;30.00;;;;;;;;5008062;28;13625;-74
2022/10/21 22:09:38;;;;;;;;;31.00;29.50;;;;;;;;5026920;28;14524;-73
2022/10/21 22:12:04;;;;;;;;;34.50;29.25;;;;;;;;5026185;28;13629;-72
2022/10/21 22:14:29;;;;;;;;;28.00;25.75;;;;;;;;5025398;28;13667;-72
2022/10/21 22:16:54;;;;;;;;;31.00;29.75;;;;;;;;5024841;28;13651;-72
2022/10/21 22:19:20;;;;;;;;;30.75;27.50;;;;;;;;5024528;28;13713;-74
2022/10/21 22:21:45;;;;;;;;;28.25;27.25;;;;;;;;5024414;28;13659;-72
2022/10/21 22:24:10;;;;;;;;;35.00;29.50;;;;;;;;5024902;28;13765;-72
2022/10/21 22:26:35;;;;;;;;;31.25;30.00;;;;;;;;5024424;28;13645;-73
2022/10/21 22:29:01;;;;;;;;;35.33;29.33;;;;;;;;5024628;28;13671;-73
2022/10/21 22:31:26;;;;;;;;;31.25;30.00;;;;;;;;5024522;28;14371;-72
2022/10/21 22:33:51;;;;;;;;;39.00;34.00;;;;;;;;5023342;28;13911;-73
2022/10/21 22:36:16;;;;;;;;;32.25;30.50;;;;;;;;5025350;28;13634;-71
2022/10/21 22:38:42;;;;;;;;;30.00;27.75;;;;;;;;5028241;28;13679;-72
2022/10/21 22:41:10;;;;;;;;;29.75;29.75;;;;;;;;5027954;28;14456;-72
2022/10/21 22:43:35;;;;;;;;;32.20;32.20;;;;;;;;5027987;28;14447;-73
2022/10/21 22:46:01;;;;;;;;;35.33;27.33;;;;;;;;5027879;28;13761;-73
2022/10/21 22:48:26;;;;;;;;;28.00;28.00;;;;;;;;5027544;28;13909;-72
2022/10/21 22:50:54;;;;;;;;;28.25;25.25;;;;;;;;5027797;28;13709;-73
2022/10/21 22:53:20;;;;;;;;;29.00;26.20;;;;;;;;5009550;28;13636;-73
2022/10/21 22:55:45;;;;;;;;;28.25;28.25;;;;;;;;5027718;28;13687;-73
2022/10/21 22:58:14;;;;;;;;;29.67;26.00;;;;;;;;5027707;28;13661;-73
2022/10/21 23:00:40;;;;;;;;;33.60;33.00;;;;;;;;5027816;28;13664;-73
2022/10/21 23:03:05;;;;;;;;;34.75;28.50;;;;;;;;5027584;28;13632;-72
2022/10/21 23:05:30;;;;;;;;;32.33;31.00;;;;;;;;5027651;28;14792;-72
2022/10/21 23:07:55;;;;;;;;;29.50;28.50;;;;;;;;5027859;28;13652;-72
2022/10/21 23:10:21;;;;;;;;;36.67;32.00;;;;;;;;5027365;28;13770;-72
2022/10/21 23:12:46;;;;;;;;;37.00;29.33;;;;;;;;5027507;28;13653;-72
2022/10/21 23:15:11;;;;;;;;;30.00;27.33;;;;;;;;5027390;28;14508;-72
2022/10/21 23:17:37;;;;;;;;;25.75;23.00;;;;;;;;5009464;28;13649;-72
2022/10/21 23:20:02;;;;;;;;;29.75;26.75;;;;;;;;5027389;28;13646;-72
2022/10/21 23:22:27;;;;;;;;;26.25;26.25;;;;;;;;5027278;28;13670;-73
2022/10/21 23:24:53;;;;;;;;;27.75;27.00;;;;;;;;5027295;28;13635;-72
2022/10/21 23:27:18;;;;;;;;;26.33;24.33;;;;;;;;5025743;28;13717;-73
2022/10/21 23:29:43;;;;;;;;;29.00;25.75;;;;;;;;5027115;28;13637;-73
2022/10/21 23:32:09;;;;;;;;;27.75;24.75;;;;;;;;5027061;28;13613;-73
2022/10/21 23:34:34;;;;;;;;;29.67;25.67;;;;;;;;5009540;28;13647;-74
2022/10/21 23:36:59;;;;;;;;;23.25;22.75;;;;;;;;5027528;28;14422;-73
2022/10/21 23:39:24;;;;;;;;;26.75;26.50;;;;;;;;5026973;28;13677;-73
2022/10/21 23:41:50;;;;;;;;;26.00;25.25;;;;;;;;5026993;28;13708;-72
2022/10/21 23:44:15;;;;;;;;;27.75;24.50;;;;;;;;5008822;28;14599;-70
2022/10/21 23:46:41;;;;;;;;;26.25;25.00;;;;;;;;5026736;28;13796;-73
2022/10/21 23:49:06;;;;;;;;;24.00;23.00;;;;;;;;5026533;28;13728;-71
2022/10/21 23:51:32;;;;;;;;;25.00;25.00;;;;;;;;5018525;28;13650;-73